sensor_id;sensor_type;location;lat;lon;timestamp;P1;durP1;ratioP1;P2;durP2;ratioP2
30824;SDS011;17550;45.486;12.222;2023-02-28T00:00:26;21.02;;;11.05;;
30824;SDS011;17550;45.486;12.222;2023-02-28T00:02:52;22.30;;;11.38;;
30824;SDS011;17550;45.486;12.222;2023-02-28T00:05:19;17.80;;;11.65;;
30824;SDS011;17550;45.486;12.222;2023-02-28T00:07:46;17.63;;;10.98;;
30824;SDS011;17550;45.486;12.222;2023-02-28T00:10:14;18.85;;;11.77;;
30824;SDS011;17550;45.486;12.222;2023-02-28T00:12:45;20.85;;;11.75;;
30824;SDS011;17550;45.486;12.222;2023-02-28T00:17:43;18.10;;;11.07;;
30824;SDS011;17550;45.486;12.222;2023-02-28T00:20:09;17.17;;;10.55;;
30824;SDS011;17550;45.486;12.222;2023-02-28T00:22:40;18.63;;;11.02;;
30824;SDS011;17550;45.486;12.222;2023-02-28T00:25:09;18.10;;;11.20;;
30824;SDS011;17550;45.486;12.222;2023-02-28T00:27:36;20.67;;;12.07;;
30824;SDS011;17550;45.486;12.222;2023-02-28T00:30:03;17.63;;;11.45;;
30824;SDS011;17550;45.486;12.222;2023-02-28T00:32:30;17.25;;;11.57;;
30824;SDS011;17550;45.486;12.222;2023-02-28T00:34:55;18.95;;;11.60;;
30824;SDS011;17550;45.486;12.222;2023-02-28T00:37:21;15.38;;;10.65;;
30824;SDS011;17550;45.486;12.222;2023-02-28T00:39:47;16.92;;;11.25;;
30824;SDS011;17550;45.486;12.222;2023-02-28T00:42:13;17.67;;;10.52;;
30824;SDS011;17550;45.486;12.222;2023-02-28T00:44:38;18.45;;;11.30;;
30824;SDS011;17550;45.486;12.222;2023-02-28T00:47:04;20.52;;;11.70;;
30824;SDS011;17550;45.486;12.222;2023-02-28T00:49:30;14.27;;;9.65;;
30824;SDS011;17550;45.486;12.222;2023-02-28T00:51:56;17.40;;;10.95;;
30824;SDS011;17550;45.486;12.222;2023-02-28T00:54:22;15.57;;;9.98;;
30824;SDS011;17550;45.486;12.222;2023-02-28T00:56:48;16.38;;;11.02;;
30824;SDS011;17550;45.486;12.222;2023-02-28T00:59:14;18.98;;;10.63;;
30824;SDS011;17550;45.486;12.222;2023-02-28T01:01:41;16.98;;;10.68;;
30824;SDS011;17550;45.486;12.222;2023-02-28T01:04:09;19.02;;;11.40;;
30824;SDS011;17550;45.486;12.222;2023-02-28T01:06:34;15.50;;;10.52;;
30824;SDS011;17550;45.486;12.222;2023-02-28T01:09:03;17.00;;;10.43;;
30824;SDS011;17550;45.486;12.222;2023-02-28T01:11:30;17.75;;;10.88;;
30824;SDS011;17550;45.486;12.222;2023-02-28T01:13:56;15.70;;;10.45;;
30824;SDS011;17550;45.486;12.222;2023-02-28T01:16:22;15.73;;;10.23;;
30824;SDS011;17550;45.486;12.222;2023-02-28T01:18:47;20.90;;;10.07;;
30824;SDS011;17550;45.486;12.222;2023-02-28T01:21:14;16.65;;;9.98;;
30824;SDS011;17550;45.486;12.222;2023-02-28T01:23:41;14.63;;;9.82;;
30824;SDS011;17550;45.486;12.222;2023-02-28T01:26:08;15.95;;;9.98;;
30824;SDS011;17550;45.486;12.222;2023-02-28T01:28:40;14.30;;;10.65;;
30824;SDS011;17550;45.486;12.222;2023-02-28T01:31:06;14.25;;;9.20;;
30824;SDS011;17550;45.486;12.222;2023-02-28T01:33:33;16.35;;;9.85;;
30824;SDS011;17550;45.486;12.222;2023-02-28T01:36:03;20.40;;;10.13;;
30824;SDS011;17550;45.486;12.222;2023-02-28T01:38:29;16.45;;;9.95;;
30824;SDS011;17550;45.486;12.222;2023-02-28T01:40:55;15.80;;;10.23;;
30824;SDS011;17550;45.486;12.222;2023-02-28T01:43:25;15.20;;;9.75;;
30824;SDS011;17550;45.486;12.222;2023-02-28T01:45:56;15.25;;;9.50;;
30824;SDS011;17550;45.486;12.222;2023-02-28T01:48:27;14.82;;;9.38;;
30824;SDS011;17550;45.486;12.222;2023-02-28T01:51:01;13.40;;;9.75;;
30824;SDS011;17550;45.486;12.222;2023-02-28T01:53:32;14.43;;;9.88;;
30824;SDS011;17550;45.486;12.222;2023-02-28T01:56:04;15.65;;;10.05;;
30824;SDS011;17550;45.486;12.222;2023-02-28T01:58:32;13.60;;;8.70;;
30824;SDS011;17550;45.486;12.222;2023-02-28T02:00:57;15.45;;;9.27;;
30824;SDS011;17550;45.486;12.222;2023-02-28T02:03:23;15.25;;;9.85;;
30824;SDS011;17550;45.486;12.222;2023-02-28T02:05:49;15.88;;;9.82;;
30824;SDS011;17550;45.486;12.222;2023-02-28T02:08:25;14.40;;;9.68;;
30824;SDS011;17550;45.486;12.222;2023-02-28T02:10:57;14.82;;;9.73;;
30824;SDS011;17550;45.486;12.222;2023-02-28T02:18:47;21.15;;;10.40;;
30824;SDS011;17550;45.486;12.222;2023-02-28T02:26:58;14.38;;;10.02;;
30824;SDS011;17550;45.486;12.222;2023-02-28T02:38:53;18.75;;;10.93;;
30824;SDS011;17550;45.486;12.222;2023-02-28T02:41:45;19.67;;;12.55;;
30824;SDS011;17550;45.486;12.222;2023-02-28T02:44:13;17.20;;;11.20;;
30824;SDS011;17550;45.486;12.222;2023-02-28T02:46:58;19.60;;;11.40;;
30824;SDS011;17550;45.486;12.222;2023-02-28T02:49:33;17.85;;;11.55;;
30824;SDS011;17550;45.486;12.222;2023-02-28T02:52:03;14.65;;;10.43;;
30824;SDS011;17550;45.486;12.222;2023-02-28T02:54:33;19.55;;;11.15;;
30824;SDS011;17550;45.486;12.222;2023-02-28T02:57:03;17.15;;;10.90;;
30824;SDS011;17550;45.486;12.222;2023-02-28T02:59:33;16.02;;;10.32;;
30824;SDS011;17550;45.486;12.222;2023-02-28T03:02:04;15.45;;;10.43;;
30824;SDS011;17550;45.486;12.222;2023-02-28T03:04:35;15.27;;;10.60;;
30824;SDS011;17550;45.486;12.222;2023-02-28T03:07:07;19.35;;;10.95;;
30824;SDS011;17550;45.486;12.222;2023-02-28T03:09:33;15.02;;;10.18;;
30824;SDS011;17550;45.486;12.222;2023-02-28T03:12:00;16.27;;;11.02;;
30824;SDS011;17550;45.486;12.222;2023-02-28T03:27:44;16.55;;;10.82;;
30824;SDS011;17550;45.486;12.222;2023-02-28T03:30:26;16.48;;;10.88;;
30824;SDS011;17550;45.486;12.222;2023-02-28T03:33:17;15.10;;;10.75;;
30824;SDS011;17550;45.486;12.222;2023-02-28T03:36:05;16.15;;;10.82;;
30824;SDS011;17550;45.486;12.222;2023-02-28T03:38:40;15.85;;;10.32;;
30824;SDS011;17550;45.486;12.222;2023-02-28T03:41:22;16.10;;;11.15;;
30824;SDS011;17550;45.486;12.222;2023-02-28T03:43:57;16.42;;;10.88;;
30824;SDS011;17550;45.486;12.222;2023-02-28T03:46:28;19.25;;;12.68;;
30824;SDS011;17550;45.486;12.222;2023-02-28T03:49:07;19.17;;;11.38;;
30824;SDS011;17550;45.486;12.222;2023-02-28T03:51:41;18.35;;;11.75;;
30824;SDS011;17550;45.486;12.222;2023-02-28T03:54:12;21.92;;;11.73;;
30824;SDS011;17550;45.486;12.222;2023-02-28T03:56:43;17.08;;;10.98;;
30824;SDS011;17550;45.486;12.222;2023-02-28T04:01:55;18.23;;;9.90;;
30824;SDS011;17550;45.486;12.222;2023-02-28T04:04:23;16.45;;;11.10;;
30824;SDS011;17550;45.486;12.222;2023-02-28T04:06:52;21.48;;;11.77;;
30824;SDS011;17550;45.486;12.222;2023-02-28T04:09:26;16.85;;;10.63;;
30824;SDS011;17550;45.486;12.222;2023-02-28T04:11:52;19.65;;;11.60;;
30824;SDS011;17550;45.486;12.222;2023-02-28T04:14:20;18.80;;;11.10;;
30824;SDS011;17550;45.486;12.222;2023-02-28T04:16:46;16.98;;;11.25;;
30824;SDS011;17550;45.486;12.222;2023-02-28T04:19:12;16.77;;;11.30;;
30824;SDS011;17550;45.486;12.222;2023-02-28T04:24:10;16.58;;;11.20;;
30824;SDS011;17550;45.486;12.222;2023-02-28T04:26:39;16.50;;;11.00;;
30824;SDS011;17550;45.486;12.222;2023-02-28T04:29:08;18.20;;;10.52;;
30824;SDS011;17550;45.486;12.222;2023-02-28T04:31:35;18.67;;;11.30;;
30824;SDS011;17550;45.486;12.222;2023-02-28T04:34:01;21.92;;;11.88;;
30824;SDS011;17550;45.486;12.222;2023-02-28T04:36:27;18.75;;;11.32;;
30824;SDS011;17550;45.486;12.222;2023-02-28T04:38:53;18.35;;;11.13;;
30824;SDS011;17550;45.486;12.222;2023-02-28T04:41:21;14.55;;;10.35;;
30824;SDS011;17550;45.486;12.222;2023-02-28T04:43:48;20.95;;;11.82;;
30824;SDS011;17550;45.486;12.222;2023-02-28T04:46:13;20.45;;;11.52;;
30824;SDS011;17550;45.486;12.222;2023-02-28T04:48:40;18.75;;;11.60;;
30824;SDS011;17550;45.486;12.222;2023-02-28T04:51:10;21.20;;;12.25;;
30824;SDS011;17550;45.486;12.222;2023-02-28T04:53:38;19.80;;;11.30;;
30824;SDS011;17550;45.486;12.222;2023-02-28T04:56:04;18.67;;;11.43;;
30824;SDS011;17550;45.486;12.222;2023-02-28T04:58:31;16.35;;;11.27;;
30824;SDS011;17550;45.486;12.222;2023-02-28T05:01:16;15.07;;;10.30;;
30824;SDS011;17550;45.486;12.222;2023-02-28T05:03:48;19.55;;;11.52;;
30824;SDS011;17550;45.486;12.222;2023-02-28T05:06:15;17.23;;;12.02;;
30824;SDS011;17550;45.486;12.222;2023-02-28T05:08:41;22.25;;;13.02;;
30824;SDS011;17550;45.486;12.222;2023-02-28T05:11:10;20.48;;;12.77;;
30824;SDS011;17550;45.486;12.222;2023-02-28T05:13:45;21.42;;;13.55;;
30824;SDS011;17550;45.486;12.222;2023-02-28T05:16:10;18.00;;;11.93;;
30824;SDS011;17550;45.486;12.222;2023-02-28T05:18:36;20.40;;;12.75;;
30824;SDS011;17550;45.486;12.222;2023-02-28T05:21:02;21.50;;;13.00;;
30824;SDS011;17550;45.486;12.222;2023-02-28T05:23:28;21.60;;;13.77;;
30824;SDS011;17550;45.486;12.222;2023-02-28T05:25:54;20.50;;;12.18;;
30824;SDS011;17550;45.486;12.222;2023-02-28T05:28:20;21.63;;;12.88;;
30824;SDS011;17550;45.486;12.222;2023-02-28T05:30:46;19.02;;;11.48;;
30824;SDS011;17550;45.486;12.222;2023-02-28T05:33:12;23.50;;;12.82;;
30824;SDS011;17550;45.486;12.222;2023-02-28T05:35:41;19.48;;;12.93;;
30824;SDS011;17550;45.486;12.222;2023-02-28T05:38:08;18.50;;;12.68;;
30824;SDS011;17550;45.486;12.222;2023-02-28T05:40:34;21.58;;;13.02;;
30824;SDS011;17550;45.486;12.222;2023-02-28T05:43:00;19.75;;;12.98;;
30824;SDS011;17550;45.486;12.222;2023-02-28T05:45:25;25.20;;;13.15;;
30824;SDS011;17550;45.486;12.222;2023-02-28T05:47:54;22.10;;;12.77;;
30824;SDS011;17550;45.486;12.222;2023-02-28T05:50:20;24.00;;;13.73;;
30824;SDS011;17550;45.486;12.222;2023-02-28T05:52:52;22.05;;;12.32;;
30824;SDS011;17550;45.486;12.222;2023-02-28T05:55:18;20.70;;;13.10;;
30824;SDS011;17550;45.486;12.222;2023-02-28T05:57:44;24.30;;;13.38;;
30824;SDS011;17550;45.486;12.222;2023-02-28T06:00:10;23.35;;;13.90;;
30824;SDS011;17550;45.486;12.222;2023-02-28T06:02:40;23.38;;;13.93;;
30824;SDS011;17550;45.486;12.222;2023-02-28T06:05:12;22.75;;;14.00;;
30824;SDS011;17550;45.486;12.222;2023-02-28T06:07:39;24.83;;;13.18;;
30824;SDS011;17550;45.486;12.222;2023-02-28T06:10:05;21.38;;;12.75;;
30824;SDS011;17550;45.486;12.222;2023-02-28T06:12:31;23.38;;;13.73;;
30824;SDS011;17550;45.486;12.222;2023-02-28T06:14:57;22.92;;;13.77;;
30824;SDS011;17550;45.486;12.222;2023-02-28T06:17:22;24.05;;;13.52;;
30824;SDS011;17550;45.486;12.222;2023-02-28T06:19:48;24.35;;;13.90;;
30824;SDS011;17550;45.486;12.222;2023-02-28T06:22:14;29.55;;;14.20;;
30824;SDS011;17550;45.486;12.222;2023-02-28T06:24:39;27.77;;;15.23;;
30824;SDS011;17550;45.486;12.222;2023-02-28T06:27:05;27.02;;;15.05;;
30824;SDS011;17550;45.486;12.222;2023-02-28T06:29:31;28.52;;;16.17;;
30824;SDS011;17550;45.486;12.222;2023-02-28T06:31:58;22.73;;;14.00;;
30824;SDS011;17550;45.486;12.222;2023-02-28T06:34:23;21.98;;;13.88;;
30824;SDS011;17550;45.486;12.222;2023-02-28T06:36:50;27.63;;;15.20;;
30824;SDS011;17550;45.486;12.222;2023-02-28T06:39:19;28.27;;;14.05;;
30824;SDS011;17550;45.486;12.222;2023-02-28T06:41:45;24.33;;;14.60;;
30824;SDS011;17550;45.486;12.222;2023-02-28T06:44:13;31.17;;;15.88;;
30824;SDS011;17550;45.486;12.222;2023-02-28T06:46:40;28.58;;;15.60;;
30824;SDS011;17550;45.486;12.222;2023-02-28T06:49:07;29.88;;;15.30;;
30824;SDS011;17550;45.486;12.222;2023-02-28T06:51:34;29.20;;;16.20;;
30824;SDS011;17550;45.486;12.222;2023-02-28T06:54:00;34.75;;;15.32;;
30824;SDS011;17550;45.486;12.222;2023-02-28T06:56:26;28.58;;;16.85;;
30824;SDS011;17550;45.486;12.222;2023-02-28T06:58:52;30.52;;;16.67;;
30824;SDS011;17550;45.486;12.222;2023-02-28T07:01:18;29.00;;;15.93;;
30824;SDS011;17550;45.486;12.222;2023-02-28T07:03:44;25.23;;;15.25;;
30824;SDS011;17550;45.486;12.222;2023-02-28T07:06:10;27.40;;;15.43;;
30824;SDS011;17550;45.486;12.222;2023-02-28T07:08:36;22.85;;;13.45;;
30824;SDS011;17550;45.486;12.222;2023-02-28T07:11:02;32.58;;;13.63;;
30824;SDS011;17550;45.486;12.222;2023-02-28T07:13:28;20.33;;;12.75;;
30824;SDS011;17550;45.486;12.222;2023-02-28T07:15:55;24.13;;;13.73;;
30824;SDS011;17550;45.486;12.222;2023-02-28T07:18:22;26.83;;;13.20;;
30824;SDS011;17550;45.486;12.222;2023-02-28T07:20:48;21.90;;;13.65;;
30824;SDS011;17550;45.486;12.222;2023-02-28T07:23:14;24.50;;;12.80;;
30824;SDS011;17550;45.486;12.222;2023-02-28T07:25:39;25.27;;;13.70;;
30824;SDS011;17550;45.486;12.222;2023-02-28T07:28:05;24.05;;;13.20;;
30824;SDS011;17550;45.486;12.222;2023-02-28T07:30:31;29.35;;;13.25;;
30824;SDS011;17550;45.486;12.222;2023-02-28T07:32:59;22.10;;;12.90;;
30824;SDS011;17550;45.486;12.222;2023-02-28T07:35:25;23.30;;;12.57;;
30824;SDS011;17550;45.486;12.222;2023-02-28T07:37:50;20.50;;;12.82;;
30824;SDS011;17550;45.486;12.222;2023-02-28T07:40:16;26.75;;;13.93;;
30824;SDS011;17550;45.486;12.222;2023-02-28T07:42:43;26.38;;;13.13;;
30824;SDS011;17550;45.486;12.222;2023-02-28T07:45:09;23.35;;;12.85;;
30824;SDS011;17550;45.486;12.222;2023-02-28T07:47:36;24.08;;;13.77;;
30824;SDS011;17550;45.486;12.222;2023-02-28T07:50:04;23.48;;;12.80;;
30824;SDS011;17550;45.486;12.222;2023-02-28T07:52:31;25.60;;;13.48;;
30824;SDS011;17550;45.486;12.222;2023-02-28T07:54:57;21.08;;;12.38;;
30824;SDS011;17550;45.486;12.222;2023-02-28T07:57:23;24.40;;;14.10;;
30824;SDS011;17550;45.486;12.222;2023-02-28T07:59:49;26.92;;;14.25;;
30824;SDS011;17550;45.486;12.222;2023-02-28T08:02:15;24.92;;;13.13;;
30824;SDS011;17550;45.486;12.222;2023-02-28T08:04:42;25.90;;;13.20;;
30824;SDS011;17550;45.486;12.222;2023-02-28T08:07:08;23.73;;;13.63;;
30824;SDS011;17550;45.486;12.222;2023-02-28T08:09:39;24.77;;;13.30;;
30824;SDS011;17550;45.486;12.222;2023-02-28T08:12:06;22.27;;;13.13;;
30824;SDS011;17550;45.486;12.222;2023-02-28T08:14:32;20.63;;;11.82;;
30824;SDS011;17550;45.486;12.222;2023-02-28T08:16:58;25.45;;;12.48;;
30824;SDS011;17550;45.486;12.222;2023-02-28T08:19:24;22.60;;;12.68;;
30824;SDS011;17550;45.486;12.222;2023-02-28T08:21:50;25.17;;;12.98;;
30824;SDS011;17550;45.486;12.222;2023-02-28T08:24:16;22.55;;;12.35;;
30824;SDS011;17550;45.486;12.222;2023-02-28T08:26:41;22.08;;;12.50;;
30824;SDS011;17550;45.486;12.222;2023-02-28T08:29:07;22.73;;;12.15;;
30824;SDS011;17550;45.486;12.222;2023-02-28T08:31:33;21.42;;;12.15;;
30824;SDS011;17550;45.486;12.222;2023-02-28T08:34:00;23.10;;;11.45;;
30824;SDS011;17550;45.486;12.222;2023-02-28T08:36:36;17.58;;;11.20;;
30824;SDS011;17550;45.486;12.222;2023-02-28T08:39:02;32.90;;;12.43;;
30824;SDS011;17550;45.486;12.222;2023-02-28T08:41:28;20.45;;;11.38;;
30824;SDS011;17550;45.486;12.222;2023-02-28T08:43:54;19.67;;;11.45;;
30824;SDS011;17550;45.486;12.222;2023-02-28T08:46:20;20.30;;;11.80;;
30824;SDS011;17550;45.486;12.222;2023-02-28T08:48:46;23.25;;;11.52;;
30824;SDS011;17550;45.486;12.222;2023-02-28T08:51:13;23.73;;;12.18;;
30824;SDS011;17550;45.486;12.222;2023-02-28T08:53:43;19.15;;;11.45;;
30824;SDS011;17550;45.486;12.222;2023-02-28T08:56:13;20.58;;;12.23;;
30824;SDS011;17550;45.486;12.222;2023-02-28T08:58:41;18.38;;;11.50;;
30824;SDS011;17550;45.486;12.222;2023-02-28T09:01:12;17.10;;;11.05;;
30824;SDS011;17550;45.486;12.222;2023-02-28T09:03:40;16.63;;;9.27;;
30824;SDS011;17550;45.486;12.222;2023-02-28T09:06:06;24.05;;;10.82;;
30824;SDS011;17550;45.486;12.222;2023-02-28T09:08:34;21.17;;;11.25;;
30824;SDS011;17550;45.486;12.222;2023-02-28T09:11:00;15.45;;;10.50;;
30824;SDS011;17550;45.486;12.222;2023-02-28T09:13:26;20.58;;;11.85;;
30824;SDS011;17550;45.486;12.222;2023-02-28T09:15:53;20.38;;;10.98;;
30824;SDS011;17550;45.486;12.222;2023-02-28T09:18:19;17.17;;;11.07;;
30824;SDS011;17550;45.486;12.222;2023-02-28T09:20:45;19.52;;;10.57;;
30824;SDS011;17550;45.486;12.222;2023-02-28T09:23:12;18.88;;;10.55;;
30824;SDS011;17550;45.486;12.222;2023-02-28T09:25:38;20.02;;;10.98;;
30824;SDS011;17550;45.486;12.222;2023-02-28T09:28:13;19.70;;;11.43;;
30824;SDS011;17550;45.486;12.222;2023-02-28T09:30:41;20.58;;;10.88;;
30824;SDS011;17550;45.486;12.222;2023-02-28T09:33:06;15.98;;;10.30;;
30824;SDS011;17550;45.486;12.222;2023-02-28T09:35:32;15.35;;;9.27;;
30824;SDS011;17550;45.486;12.222;2023-02-28T09:37:58;21.85;;;9.57;;
30824;SDS011;17550;45.486;12.222;2023-02-28T09:40:24;16.42;;;9.32;;
30824;SDS011;17550;45.486;12.222;2023-02-28T09:42:51;17.05;;;10.57;;
30824;SDS011;17550;45.486;12.222;2023-02-28T09:45:36;17.33;;;9.32;;
30824;SDS011;17550;45.486;12.222;2023-02-28T09:48:15;14.75;;;9.13;;
30824;SDS011;17550;45.486;12.222;2023-02-28T09:50:51;16.40;;;9.80;;
30824;SDS011;17550;45.486;12.222;2023-02-28T09:53:29;17.58;;;10.45;;
30824;SDS011;17550;45.486;12.222;2023-02-28T09:58:28;22.25;;;9.82;;
30824;SDS011;17550;45.486;12.222;2023-02-28T10:01:10;13.52;;;8.80;;
30824;SDS011;17550;45.486;12.222;2023-02-28T10:03:51;14.90;;;9.38;;
30824;SDS011;17550;45.486;12.222;2023-02-28T10:06:29;16.10;;;8.98;;
30824;SDS011;17550;45.486;12.222;2023-02-28T10:09:04;12.00;;;7.95;;
30824;SDS011;17550;45.486;12.222;2023-02-28T10:11:38;11.93;;;8.18;;
30824;SDS011;17550;45.486;12.222;2023-02-28T10:14:09;12.65;;;8.35;;
30824;SDS011;17550;45.486;12.222;2023-02-28T10:16:50;13.98;;;8.02;;
30824;SDS011;17550;45.486;12.222;2023-02-28T10:23:04;21.48;;;9.48;;
30824;SDS011;17550;45.486;12.222;2023-02-28T10:25:23;13.75;;;8.35;;
30824;SDS011;17550;45.486;12.222;2023-02-28T10:28:00;14.65;;;9.00;;
30824;SDS011;17550;45.486;12.222;2023-02-28T10:30:34;15.73;;;9.13;;
30824;SDS011;17550;45.486;12.222;2023-02-28T10:33:05;15.27;;;8.63;;
30824;SDS011;17550;45.486;12.222;2023-02-28T10:35:39;15.45;;;8.55;;
30824;SDS011;17550;45.486;12.222;2023-02-28T10:38:08;15.20;;;8.35;;
30824;SDS011;17550;45.486;12.222;2023-02-28T10:40:45;11.48;;;7.45;;
30824;SDS011;17550;45.486;12.222;2023-02-28T10:45:39;15.48;;;9.43;;
30824;SDS011;17550;45.486;12.222;2023-02-28T10:56:02;15.77;;;10.15;;
30824;SDS011;17550;45.486;12.222;2023-02-28T10:58:50;17.98;;;9.88;;
30824;SDS011;17550;45.486;12.222;2023-02-28T11:03:51;16.23;;;8.73;;
30824;SDS011;17550;45.486;12.222;2023-02-28T11:06:19;15.10;;;8.18;;
30824;SDS011;17550;45.486;12.222;2023-02-28T11:08:52;12.55;;;8.00;;
30824;SDS011;17550;45.486;12.222;2023-02-28T11:11:24;14.10;;;8.37;;
30824;SDS011;17550;45.486;12.222;2023-02-28T11:13:53;16.85;;;10.05;;
30824;SDS011;17550;45.486;12.222;2023-02-28T11:16:21;13.95;;;9.43;;
30824;SDS011;17550;45.486;12.222;2023-02-28T11:19:00;25.63;;;9.90;;
30824;SDS011;17550;45.486;12.222;2023-02-28T11:21:27;18.52;;;10.65;;
30824;SDS011;17550;45.486;12.222;2023-02-28T11:26:52;18.23;;;10.18;;
30824;SDS011;17550;45.486;12.222;2023-02-28T11:29:25;17.10;;;9.57;;
30824;SDS011;17550;45.486;12.222;2023-02-28T11:32:02;17.63;;;10.20;;
30824;SDS011;17550;45.486;12.222;2023-02-28T11:34:38;17.98;;;10.02;;
30824;SDS011;17550;45.486;12.222;2023-02-28T11:37:05;16.83;;;10.70;;
30824;SDS011;17550;45.486;12.222;2023-02-28T11:39:36;14.90;;;9.90;;
30824;SDS011;17550;45.486;12.222;2023-02-28T11:50:22;16.98;;;9.20;;
30824;SDS011;17550;45.486;12.222;2023-02-28T11:58:33;15.95;;;10.30;;
30824;SDS011;17550;45.486;12.222;2023-02-28T12:09:47;16.23;;;10.15;;
30824;SDS011;17550;45.486;12.222;2023-02-28T12:15:22;17.58;;;10.18;;
30824;SDS011;17550;45.486;12.222;2023-02-28T12:29:02;13.82;;;9.20;;
30824;SDS011;17550;45.486;12.222;2023-02-28T12:31:43;17.10;;;10.82;;
30824;SDS011;17550;45.486;12.222;2023-02-28T12:34:25;19.42;;;11.38;;
30824;SDS011;17550;45.486;12.222;2023-02-28T12:36:58;22.00;;;11.98;;
30824;SDS011;17550;45.486;12.222;2023-02-28T12:39:29;20.90;;;9.38;;
30824;SDS011;17550;45.486;12.222;2023-02-28T12:42:03;14.10;;;9.10;;
30824;SDS011;17550;45.486;12.222;2023-02-28T12:44:37;16.83;;;10.18;;
30824;SDS011;17550;45.486;12.222;2023-02-28T12:47:15;17.33;;;10.02;;
30824;SDS011;17550;45.486;12.222;2023-02-28T12:49:52;17.45;;;10.48;;
30824;SDS011;17550;45.486;12.222;2023-02-28T12:52:47;20.35;;;11.57;;
30824;SDS011;17550;45.486;12.222;2023-02-28T12:58:07;19.00;;;10.43;;
30824;SDS011;17550;45.486;12.222;2023-02-28T13:11:51;18.45;;;10.15;;
30824;SDS011;17550;45.486;12.222;2023-02-28T13:14:20;13.23;;;8.93;;
30824;SDS011;17550;45.486;12.222;2023-02-28T13:19:27;17.23;;;9.85;;
30824;SDS011;17550;45.486;12.222;2023-02-28T13:21:57;14.98;;;8.80;;
30824;SDS011;17550;45.486;12.222;2023-02-28T13:29:50;12.07;;;7.93;;
30824;SDS011;17550;45.486;12.222;2023-02-28T13:39:55;18.90;;;10.18;;
30824;SDS011;17550;45.486;12.222;2023-02-28T13:55:41;17.15;;;9.63;;
30824;SDS011;17550;45.486;12.222;2023-02-28T14:06:25;20.77;;;9.45;;
30824;SDS011;17550;45.486;12.222;2023-02-28T14:11:30;16.85;;;9.68;;
30824;SDS011;17550;45.486;12.222;2023-02-28T14:13:58;18.42;;;8.48;;
30824;SDS011;17550;45.486;12.222;2023-02-28T14:16:35;14.55;;;9.45;;
30824;SDS011;17550;45.486;12.222;2023-02-28T14:21:46;16.85;;;8.80;;
30824;SDS011;17550;45.486;12.222;2023-02-28T14:24:39;20.50;;;8.98;;
30824;SDS011;17550;45.486;12.222;2023-02-28T14:30:03;23.02;;;9.95;;
30824;SDS011;17550;45.486;12.222;2023-02-28T14:32:47;16.83;;;8.35;;
30824;SDS011;17550;45.486;12.222;2023-02-28T14:41:35;25.63;;;8.88;;
30824;SDS011;17550;45.486;12.222;2023-02-28T14:44:13;24.70;;;8.25;;
30824;SDS011;17550;45.486;12.222;2023-02-28T14:46:40;18.92;;;8.60;;
30824;SDS011;17550;45.486;12.222;2023-02-28T14:49:12;18.60;;;8.98;;
30824;SDS011;17550;45.486;12.222;2023-02-28T14:54:30;23.40;;;8.35;;
30824;SDS011;17550;45.486;12.222;2023-02-28T14:56:56;16.00;;;9.10;;
30824;SDS011;17550;45.486;12.222;2023-02-28T15:04:54;23.15;;;9.45;;
30824;SDS011;17550;45.486;12.222;2023-02-28T15:07:24;19.25;;;8.43;;
30824;SDS011;17550;45.486;12.222;2023-02-28T15:12:41;20.90;;;9.05;;
30824;SDS011;17550;45.486;12.222;2023-02-28T15:15:21;18.70;;;8.65;;
30824;SDS011;17550;45.486;12.222;2023-02-28T15:17:51;22.27;;;8.52;;
30824;SDS011;17550;45.486;12.222;2023-02-28T15:20:20;22.27;;;8.32;;
30824;SDS011;17550;45.486;12.222;2023-02-28T15:22:47;16.95;;;8.63;;
30824;SDS011;17550;45.486;12.222;2023-02-28T15:25:18;22.85;;;10.07;;
30824;SDS011;17550;45.486;12.222;2023-02-28T15:27:50;20.38;;;9.95;;
30824;SDS011;17550;45.486;12.222;2023-02-28T15:30:19;15.57;;;8.55;;
30824;SDS011;17550;45.486;12.222;2023-02-28T15:35:45;19.00;;;9.13;;
30824;SDS011;17550;45.486;12.222;2023-02-28T15:40:53;22.08;;;9.05;;
30824;SDS011;17550;45.486;12.222;2023-02-28T15:43:27;23.88;;;9.23;;
30824;SDS011;17550;45.486;12.222;2023-02-28T15:45:58;25.02;;;9.10;;
30824;SDS011;17550;45.486;12.222;2023-02-28T15:48:52;25.33;;;9.50;;
30824;SDS011;17550;45.486;12.222;2023-02-28T15:51:32;32.67;;;9.70;;
30824;SDS011;17550;45.486;12.222;2023-02-28T15:54:04;17.05;;;9.52;;
30824;SDS011;17550;45.486;12.222;2023-02-28T15:56:33;16.67;;;8.90;;
30824;SDS011;17550;45.486;12.222;2023-02-28T15:59:07;14.82;;;8.02;;
30824;SDS011;17550;45.486;12.222;2023-02-28T16:02:02;26.55;;;10.02;;
30824;SDS011;17550;45.486;12.222;2023-02-28T16:04:28;18.83;;;9.90;;
30824;SDS011;17550;45.486;12.222;2023-02-28T16:09:26;23.98;;;10.52;;
30824;SDS011;17550;45.486;12.222;2023-02-28T16:11:53;17.00;;;9.75;;
30824;SDS011;17550;45.486;12.222;2023-02-28T16:14:22;25.65;;;10.57;;
30824;SDS011;17550;45.486;12.222;2023-02-28T16:16:53;21.75;;;10.13;;
30824;SDS011;17550;45.486;12.222;2023-02-28T16:19:20;25.27;;;10.35;;
30824;SDS011;17550;45.486;12.222;2023-02-28T16:21:46;23.67;;;9.60;;
30824;SDS011;17550;45.486;12.222;2023-02-28T16:24:13;26.40;;;10.48;;
30824;SDS011;17550;45.486;12.222;2023-02-28T16:26:39;24.58;;;10.57;;
30824;SDS011;17550;45.486;12.222;2023-02-28T16:29:06;29.52;;;10.52;;
30824;SDS011;17550;45.486;12.222;2023-02-28T16:31:35;22.20;;;10.52;;
30824;SDS011;17550;45.486;12.222;2023-02-28T16:34:03;21.83;;;10.38;;
30824;SDS011;17550;45.486;12.222;2023-02-28T16:36:29;22.77;;;11.00;;
30824;SDS011;17550;45.486;12.222;2023-02-28T16:38:55;22.23;;;11.13;;
30824;SDS011;17550;45.486;12.222;2023-02-28T16:41:22;22.58;;;10.00;;
30824;SDS011;17550;45.486;12.222;2023-02-28T16:43:52;32.10;;;9.88;;
30824;SDS011;17550;45.486;12.222;2023-02-28T16:46:23;22.30;;;10.90;;
30824;SDS011;17550;45.486;12.222;2023-02-28T16:48:52;17.67;;;10.50;;
30824;SDS011;17550;45.486;12.222;2023-02-28T16:51:18;22.40;;;10.85;;
30824;SDS011;17550;45.486;12.222;2023-02-28T16:53:44;24.67;;;10.05;;
30824;SDS011;17550;45.486;12.222;2023-02-28T16:56:20;23.88;;;10.52;;
30824;SDS011;17550;45.486;12.222;2023-02-28T16:58:48;20.42;;;10.50;;
30824;SDS011;17550;45.486;12.222;2023-02-28T17:01:15;27.23;;;12.48;;
30824;SDS011;17550;45.486;12.222;2023-02-28T17:03:42;25.85;;;12.68;;
30824;SDS011;17550;45.486;12.222;2023-02-28T17:06:16;25.13;;;12.57;;
30824;SDS011;17550;45.486;12.222;2023-02-28T17:08:49;19.92;;;10.07;;
30824;SDS011;17550;45.486;12.222;2023-02-28T17:11:16;26.75;;;12.90;;
30824;SDS011;17550;45.486;12.222;2023-02-28T17:13:43;30.33;;;12.30;;
30824;SDS011;17550;45.486;12.222;2023-02-28T17:16:17;30.63;;;13.57;;
30824;SDS011;17550;45.486;12.222;2023-02-28T17:18:50;26.55;;;11.80;;
30824;SDS011;17550;45.486;12.222;2023-02-28T17:21:16;25.48;;;12.10;;
30824;SDS011;17550;45.486;12.222;2023-02-28T17:23:42;25.98;;;12.40;;
30824;SDS011;17550;45.486;12.222;2023-02-28T17:26:11;26.58;;;12.68;;
30824;SDS011;17550;45.486;12.222;2023-02-28T17:28:42;38.38;;;13.30;;
30824;SDS011;17550;45.486;12.222;2023-02-28T17:31:08;26.20;;;13.80;;